Time;durP1;ratioP1;P1;durP2;ratioP2;P2;SDS_P1;SDS_P2;PMS_P1;PMS_P2;Temp;Humidity;BMP_temperature;BMP_pressure;BME280_temperature;BME280_humidity;BME280_pressure;Samples;Min_cycle;Max_cycle;Signal;HPM_P1;HPM_P2
2022/09/12 00:00:04;;;;;;;10.40;9.40;;;14.60;99.90;;;;;;5137305;27;20046;-76
2022/09/12 00:02:30;;;;;;;10.93;9.20;;;14.60;99.90;;;;;;5118401;27;20039;-76
2022/09/12 00:04:55;;;;;;;10.43;9.37;;;14.60;99.90;;;;;;5136925;27;20047;-75
2022/09/12 00:07:21;;;;;;;11.30;10.20;;;14.50;99.90;;;;;;5136872;27;20390;-77
2022/09/12 00:09:46;;;;;;;10.18;9.18;;;14.50;99.90;;;;;;5136744;27;20049;-76
2022/09/12 00:12:12;;;;;;;13.32;10.05;;;14.50;99.90;;;;;;5136798;27;20047;-76
2022/09/12 00:14:37;;;;;;;12.00;10.17;;;14.50;99.90;;;;;;5136759;27;20566;-76
2022/09/12 00:17:03;;;;;;;10.90;9.87;;;14.50;99.90;;;;;;5117904;27;20042;-77
2022/09/12 00:19:29;;;;;;;10.87;9.77;;;14.50;99.90;;;;;;5136694;27;20490;-77
2022/09/12 00:21:55;;;;;;;12.13;10.93;;;14.50;99.90;;;;;;5136522;27;20043;-77
2022/09/12 00:24:21;;;;;;;11.40;10.30;;;14.50;99.90;;;;;;5118243;27;20092;-76
2022/09/12 00:26:47;;;;;;;12.67;11.27;;;14.40;99.90;;;;;;5136533;27;20047;-76
2022/09/12 00:29:18;;;;;;;11.80;10.38;;;14.50;99.90;;;;;;5136399;27;20337;-76
2022/09/12 00:31:44;;;;;;;13.35;11.95;;;14.60;99.90;;;;;;5136376;27;20039;-76
2022/09/12 00:34:10;;;;;;;11.13;10.03;;;14.30;99.90;;;;;;5136391;27;20050;-76
2022/09/12 00:36:37;;;;;;;13.07;11.88;;;14.40;99.90;;;;;;5136001;27;20042;-76
2022/09/12 00:39:04;;;;;;;12.52;11.23;;;14.30;99.90;;;;;;5136044;27;20494;-75
2022/09/12 00:41:33;;;;;;;12.80;11.57;;;14.20;99.90;;;;;;5136731;27;20039;-76
2022/09/12 00:44:02;;;;;;;12.77;11.05;;;14.30;99.90;;;;;;5136363;27;20046;-76
2022/09/12 00:46:33;;;;;;;13.68;10.95;;;14.30;99.90;;;;;;5136118;27;20051;-77
2022/09/12 00:49:14;;;;;;;13.95;12.18;;;14.20;99.90;;;;;;5135919;27;20039;-76
2022/09/12 00:51:45;;;;;;;14.45;12.55;;;14.20;99.90;;;;;;5136114;27;20039;-76
2022/09/12 00:54:18;;;;;;;13.73;11.93;;;14.20;99.90;;;;;;5118043;27;20042;-76
2022/09/12 00:56:45;;;;;;;14.15;12.30;;;14.10;99.90;;;;;;5136426;27;20134;-75
2022/09/12 00:59:16;;;;;;;;;;;14.10;99.90;;;;;;5136276;27;20092;-76
2022/09/12 01:01:45;;;;;;;14.27;12.75;;;14.00;99.90;;;;;;5135768;27;19920;-76
2022/09/12 01:04:11;;;;;;;15.93;14.40;;;14.00;99.90;;;;;;5135774;27;20043;-76
2022/09/12 01:06:42;;;;;;;18.50;13.18;;;14.00;99.90;;;;;;5135718;27;20054;-76
2022/09/12 01:09:14;;;;;;;19.00;17.00;;;14.00;99.90;;;;;;5117507;27;20039;-76
2022/09/12 01:11:41;;;;;;;17.63;14.27;;;14.00;99.90;;;;;;5135522;27;20531;-75
2022/09/12 01:14:08;;;;;;;16.30;14.65;;;14.00;99.90;;;;;;5117285;27;20486;-75
2022/09/12 01:16:37;;;;;;;16.48;14.77;;;14.00;99.90;;;;;;5135661;27;20042;-76
2022/09/12 01:19:38;;;;;;;15.73;14.10;;;13.90;99.90;;;;;;5135462;27;20474;-76
2022/09/12 01:22:16;;;;;;;18.20;16.23;;;13.90;99.90;;;;;;5135298;27;20494;-76
2022/09/12 01:25:06;;;;;;;17.20;15.40;;;13.90;99.90;;;;;;5135341;27;20051;-76
2022/09/12 01:28:12;;;;;;;16.98;15.27;;;13.90;99.90;;;;;;5135339;27;20051;-76
2022/09/12 01:30:43;;;;;;;17.13;15.02;;;13.80;99.90;;;;;;5135070;27;20046;-76
2022/09/12 01:33:46;;;;;;;18.48;16.67;;;13.80;99.90;;;;;;5134854;27;20502;-76
2022/09/12 01:36:27;;;;;;;17.05;15.35;;;13.70;99.90;;;;;;5135046;27;20046;-76
2022/09/12 01:38:59;;;;;;;18.73;16.80;;;13.80;99.90;;;;;;5135181;27;20043;-75
2022/09/12 01:41:48;;;;;;;17.67;15.77;;;13.70;99.90;;;;;;5135068;27;20486;-76
2022/09/12 01:44:34;;;;;;;18.23;16.40;;;13.60;99.90;;;;;;5135463;27;20104;-78
2022/09/12 01:47:26;;;;;;;18.80;16.90;;;13.60;99.90;;;;;;5134993;27;20390;-77
2022/09/12 01:50:05;;;;;;;19.23;17.17;;;13.50;99.90;;;;;;5134965;27;20043;-75
2022/09/12 01:52:49;;;;;;;19.65;17.60;;;13.60;99.90;;;;;;5135175;27;20117;-75
2022/09/12 01:55:28;;;;;;;20.65;18.48;;;13.50;99.90;;;;;;5135234;27;20437;-75
2022/09/12 01:58:04;;;;;;;19.25;17.13;;;13.50;99.90;;;;;;5135063;27;20043;-76
2022/09/12 02:00:38;;;;;;;20.73;18.53;;;13.50;99.90;;;;;;5135138;27;20410;-76
2022/09/12 02:03:12;;;;;;;21.15;18.95;;;13.50;99.90;;;;;;5135033;27;20479;-75
2022/09/12 02:05:52;;;;;;;21.55;19.02;;;13.60;99.90;;;;;;5135283;27;20428;-77
2022/09/12 02:08:44;;;;;;;20.27;18.27;;;13.60;99.90;;;;;;5134957;27;20394;-75
2022/09/12 02:11:10;;;;;;;20.15;18.15;;;13.60;99.90;;;;;;5134908;27;20035;-76
2022/09/12 02:14:11;;;;;;;19.40;17.50;;;13.50;99.90;;;;;;5134406;28;20082;-76
2022/09/12 02:16:43;;;;;;;21.20;19.10;;;13.50;99.90;;;;;;5111867;28;20051;-75
2022/09/12 02:19:16;;;;;;;20.85;18.75;;;13.40;99.90;;;;;;5115988;28;20398;-75
2022/09/12 02:21:56;;;;;;;22.10;19.52;;;13.40;99.90;;;;;;5134699;28;20047;-75
2022/09/12 02:24:29;;;;;;;20.75;18.70;;;13.40;99.90;;;;;;5134185;28;20456;-75
2022/09/12 02:27:05;;;;;;;21.27;19.00;;;13.40;99.90;;;;;;5134638;28;20041;-75
2022/09/12 02:29:30;;;;;;;22.58;20.17;;;13.40;99.90;;;;;;5134238;28;20040;-75
2022/09/12 02:31:58;;;;;;;20.07;17.90;;;13.40;99.90;;;;;;5134488;28;20066;-76
2022/09/12 02:34:42;;;;;;;22.77;19.88;;;13.40;99.90;;;;;;5116386;28;20439;-76
2022/09/12 02:37:20;;;;;;;23.55;21.05;;;13.30;99.90;;;;;;5134400;28;20047;-75
2022/09/12 02:39:45;;;;;;;23.15;19.88;;;13.40;99.90;;;;;;5135729;27;20390;-76
2022/09/12 02:42:12;;;;;;;21.63;18.27;;;13.60;99.90;;;;;;5138418;27;20047;-76
2022/09/12 02:44:38;;;;;;;25.02;22.33;;;13.20;99.90;;;;;;5120628;27;20039;-76
2022/09/12 02:47:16;;;;;;;24.77;22.10;;;13.30;99.90;;;;;;5138480;27;20058;-75
2022/09/12 02:49:42;;;;;;;24.92;21.85;;;13.50;99.90;;;;;;5138719;27;20070;-76
2022/09/12 02:52:08;;;;;;;24.57;21.97;;;13.30;99.90;;;;;;5138413;27;20470;-75
2022/09/12 02:54:34;;;;;;;24.10;21.65;;;13.20;99.90;;;;;;5138292;27;20047;-75
2022/09/12 02:57:00;;;;;;;24.00;21.52;;;;;;;;;;5138330;27;20043;-75
2022/09/12 02:59:26;;;;;;;26.10;23.33;;;13.20;99.90;;;;;;5138606;27;20043;-75
2022/09/12 03:02:10;;;;;;;27.88;24.60;;;13.20;99.90;;;;;;5138495;27;20108;-75
2022/09/12 03:04:48;;;;;;;26.38;22.05;;;13.20;99.90;;;;;;5120002;27;20100;-75
2022/09/12 03:07:22;;;;;;;;;;;13.10;99.90;;;;;;5138476;27;20130;-76
2022/09/12 03:10:07;;;;;;;21.77;17.42;;;13.20;99.90;;;;;;5138362;27;19926;-75
2022/09/12 03:13:06;;;;;;;25.30;21.48;;;13.10;99.90;;;;;;5138243;27;20050;-75
2022/09/12 03:15:50;;;;;;;25.30;20.80;;;13.10;99.90;;;;;;5137623;27;20084;-76
2022/09/12 03:18:30;;;;;;;25.67;21.50;;;13.40;99.90;;;;;;5138201;27;20111;-76
2022/09/12 03:21:24;;;;;;;22.00;18.08;;;13.10;99.90;;;;;;5137796;27;20047;-75
2022/09/12 03:24:41;;;;;;;24.15;20.33;;;13.10;99.90;;;;;;5117650;27;20055;-75
2022/09/12 03:27:13;;;;;;;26.63;22.10;;;13.10;99.90;;;;;;5094533;28;20105;-76
2022/09/12 03:29:40;;;;;;;25.13;21.25;;;13.10;99.90;;;;;;5135122;27;20100;-76
2022/09/12 03:32:06;;;;;;;26.23;23.23;;;13.10;99.90;;;;;;5137527;27;20043;-76
2022/09/12 03:34:32;;;;;;;23.00;18.50;;;13.10;99.90;;;;;;5137569;27;20106;-76
2022/09/12 03:36:58;;;;;;;25.67;22.52;;;13.00;99.90;;;;;;5119413;27;20039;-75
2022/09/12 03:39:25;;;;;;;30.08;22.65;;;13.10;99.90;;;;;;5137408;27;20054;-75
2022/09/12 03:41:52;;;;;;;24.40;21.38;;;13.00;99.90;;;;;;5137246;27;20039;-76
2022/09/12 03:44:18;;;;;;;29.55;24.10;;;13.00;99.90;;;;;;5119295;27;20047;-75
2022/09/12 03:46:44;;;;;;;23.98;20.40;;;13.00;99.90;;;;;;5137276;27;20043;-76
2022/09/12 03:49:10;;;;;;;26.75;18.83;;;12.90;99.90;;;;;;5136925;27;20364;-75
2022/09/12 03:51:36;;;;;;;26.13;23.42;;;12.90;99.90;;;;;;5136206;27;20047;-76
2022/09/12 03:54:02;;;;;;;26.45;21.90;;;12.90;99.90;;;;;;5137366;27;20039;-75
2022/09/12 03:56:28;;;;;;;24.47;20.90;;;12.90;99.90;;;;;;5137115;27;20155;-76
2022/09/12 03:58:53;;;;;;;22.67;19.80;;;12.90;99.90;;;;;;5137135;27;20756;-75
2022/09/12 04:01:19;;;;;;;23.45;19.75;;;12.90;99.90;;;;;;5136951;27;20456;-75
2022/09/12 04:03:47;;;;;;;24.35;19.95;;;12.80;99.90;;;;;;5136671;27;20058;-75
2022/09/12 04:06:16;;;;;;;24.55;19.90;;;12.80;99.90;;;;;;5136841;27;20512;-75
2022/09/12 04:08:43;;;;;;;25.02;21.58;;;12.90;99.90;;;;;;5118640;27;20051;-76
2022/09/12 04:11:13;;;;;;;;;;;12.70;99.90;;;;;;5137270;27;20035;-75
2022/09/12 04:13:40;;;;;;;23.13;19.77;;;12.70;99.90;;;;;;5118469;27;19919;-75
2022/09/12 04:16:06;;;;;;;27.55;21.92;;;12.70;99.90;;;;;;5136645;27;20050;-75
2022/09/12 04:18:32;;;;;;;35.13;22.13;;;12.70;99.90;;;;;;5136690;27;20043;-75
2022/09/12 04:20:58;;;;;;;27.73;23.03;;;12.70;99.90;;;;;;5136692;27;20047;-75
2022/09/12 04:23:24;;;;;;;35.57;24.40;;;12.70;99.90;;;;;;5136574;27;20051;-76
2022/09/12 04:25:57;;;;;;;31.83;26.40;;;12.70;99.90;;;;;;5136544;27;20122;-76
2022/09/12 04:28:24;;;;;;;29.17;22.23;;;12.70;99.90;;;;;;5136465;27;20086;-75
2022/09/12 04:30:49;;;;;;;30.33;24.88;;;12.70;99.90;;;;;;5136298;27;20049;-76
2022/09/12 04:33:15;;;;;;;33.95;25.33;;;12.70;99.90;;;;;;5135522;27;20063;-75
2022/09/12 04:35:41;;;;;;;26.20;20.63;;;12.70;99.90;;;;;;5136354;27;20122;-75
2022/09/12 04:38:07;;;;;;;29.05;18.77;;;12.70;99.90;;;;;;5136299;27;20047;-75
2022/09/12 04:40:33;;;;;;;25.08;22.25;;;12.60;99.90;;;;;;5136181;27;20439;-75
2022/09/12 04:42:58;;;;;;;30.37;22.47;;;12.60;99.90;;;;;;5117849;27;20055;-76
2022/09/12 04:45:24;;;;;;;27.98;22.67;;;12.60;99.90;;;;;;5136098;27;20054;-76
2022/09/12 04:47:51;;;;;;;27.27;22.48;;;12.60;99.90;;;;;;5136185;27;20047;-75
2022/09/12 04:50:17;;;;;;;29.55;25.52;;;12.60;99.90;;;;;;5135923;27;20047;-76
2022/09/12 04:52:47;;;;;;;32.05;26.33;;;12.60;99.90;;;;;;5135992;27;20039;-75
2022/09/12 04:55:13;;;;;;;28.90;22.05;;;12.50;99.90;;;;;;5136149;27;20078;-74
2022/09/12 04:57:38;;;;;;;27.77;21.33;;;12.90;99.90;;;;;;5135899;27;20517;-75
2022/09/12 05:00:05;;;;;;;25.88;20.27;;;12.60;99.90;;;;;;5135732;27;20039;-76
2022/09/12 05:02:33;;;;;;;32.38;25.60;;;12.60;99.90;;;;;;5135946;27;20381;-75
2022/09/12 05:04:58;;;;;;;30.50;24.17;;;12.60;99.90;;;;;;5135738;27;20047;-76
2022/09/12 05:07:24;;;;;;;29.37;23.00;;;12.60;99.90;;;;;;5135807;27;20047;-75
2022/09/12 05:09:49;;;;;;;37.17;29.13;;;12.60;99.90;;;;;;5135535;27;20039;-76
2022/09/12 05:12:15;;;;;;;38.27;26.37;;;12.60;99.90;;;;;;5135544;27;20513;-76
2022/09/12 05:14:41;;;;;;;38.50;25.90;;;12.70;99.90;;;;;;5135553;27;20039;-76
2022/09/12 05:17:06;;;;;;;37.17;28.57;;;12.60;99.90;;;;;;5135408;27;20083;-75
2022/09/12 05:19:32;;;;;;;48.72;34.78;;;12.60;99.90;;;;;;5135242;27;20054;-76
2022/09/12 05:21:58;;;;;;;35.00;24.77;;;12.70;99.90;;;;;;5135270;27;20031;-76
2022/09/12 05:24:24;;;;;;;35.60;28.63;;;12.80;99.90;;;;;;5135555;27;20399;-76
2022/09/12 05:26:50;;;;;;;41.67;28.47;;;12.80;99.90;;;;;;5135500;27;20031;-76
2022/09/12 05:29:15;;;;;;;37.20;29.55;;;12.80;99.90;;;;;;5135177;27;20046;-76
2022/09/12 05:31:41;;;;;;;42.35;31.08;;;12.90;99.90;;;;;;5135189;27;20471;-77
2022/09/12 05:34:07;;;;;;;34.00;25.30;;;12.90;99.90;;;;;;5134990;27;20082;-76
2022/09/12 05:36:33;;;;;;;36.00;28.40;;;13.00;99.90;;;;;;5135603;27;20047;-76
2022/09/12 05:39:00;;;;;;;39.25;28.88;;;13.00;99.90;;;;;;5135161;27;20050;-76
2022/09/12 05:41:29;;;;;;;37.25;26.92;;;13.10;99.90;;;;;;5135087;27;20050;-76
2022/09/12 05:44:01;;;;;;;40.00;30.63;;;13.20;99.90;;;;;;5116696;27;20090;-76
2022/09/12 05:46:29;;;;;;;44.33;30.50;;;13.30;99.90;;;;;;5134993;27;20051;-76
2022/09/12 05:48:56;;;;;;;45.00;31.60;;;13.30;99.90;;;;;;5134835;27;20088;-76
2022/09/12 05:51:22;;;;;;;;;;;13.40;99.90;;;;;;5135394;27;20448;-77
2022/09/12 05:53:58;;;;;;;42.53;29.48;;;13.50;99.90;;;;;;5135072;27;19919;-76
2022/09/12 05:56:26;;;;;;;50.97;34.80;;;13.60;99.90;;;;;;5134918;27;20047;-76
2022/09/12 05:58:55;;;;;;;45.80;34.00;;;13.70;99.90;;;;;;5134801;27;20043;-76
2022/09/12 06:01:21;;;;;;;44.85;28.35;;;13.70;99.90;;;;;;5134769;27;20047;-76
2022/09/12 06:03:49;;;;;;;49.43;30.87;;;13.70;99.90;;;;;;5134898;27;20121;-75
2022/09/12 06:06:17;;;;;;;47.78;31.95;;;13.80;99.90;;;;;;5134938;27;20039;-76
2022/09/12 06:08:45;;;;;;;48.10;34.65;;;13.80;99.90;;;;;;5134518;27;20054;-77
2022/09/12 06:11:17;;;;;;;46.28;30.95;;;13.90;99.90;;;;;;5134336;27;20050;-76
2022/09/12 06:13:43;;;;;;;44.70;32.40;;;14.00;99.90;;;;;;5116807;27;20043;-77
2022/09/12 06:16:20;;;;;;;46.75;30.95;;;14.00;99.90;;;;;;5134088;28;20050;-77
2022/09/12 06:18:48;;;;;;;48.60;30.50;;;14.10;99.90;;;;;;5134578;28;20039;-77
2022/09/12 06:21:14;;;;;;;44.35;30.85;;;14.40;99.90;;;;;;5116445;28;20039;-76
2022/09/12 06:23:41;;;;;;;45.60;30.58;;;14.20;99.90;;;;;;5116439;28;20047;-77
2022/09/12 06:26:09;;;;;;;45.03;31.27;;;14.20;99.90;;;;;;5134510;28;20035;-77
2022/09/12 06:28:37;;;;;;;45.13;32.17;;;14.40;99.90;;;;;;5134437;28;20126;-77
2022/09/12 06:31:11;;;;;;;41.65;30.60;;;14.40;99.90;;;;;;5134560;28;20180;-76
2022/09/12 06:33:42;;;;;;;43.55;31.48;;;14.40;99.90;;;;;;5134541;28;20046;-76
2022/09/12 06:36:20;;;;;;;42.55;28.98;;;14.40;99.90;;;;;;5134495;28;20048;-76
2022/09/12 06:38:47;;;;;;;37.70;28.08;;;14.50;99.90;;;;;;5134526;28;20051;-76
2022/09/12 06:41:14;;;;;;;36.47;29.42;;;14.60;99.90;;;;;;5134424;28;20435;-76
2022/09/12 06:43:40;;;;;;;39.92;30.20;;;14.60;99.90;;;;;;5134241;27;20134;-76
2022/09/12 06:46:07;;;;;;;37.55;29.27;;;14.60;99.90;;;;;;5134325;28;20043;-76
2022/09/12 06:48:34;;;;;;;39.22;28.77;;;14.80;99.90;;;;;;5134168;28;20039;-76
2022/09/12 06:51:03;;;;;;;33.10;26.58;;;14.80;99.90;;;;;;5116429;28;20051;-76
2022/09/12 06:53:29;;;;;;;34.38;28.45;;;14.80;99.90;;;;;;5115978;28;20051;-77
2022/09/12 06:56:00;;;;;;;30.77;26.38;;;14.90;99.90;;;;;;5134349;28;20092;-77
2022/09/12 06:58:27;;;;;;;34.72;26.60;;;14.90;99.90;;;;;;5133953;28;20440;-76
2022/09/12 07:01:01;;;;;;;33.10;25.92;;;15.10;99.90;;;;;;5134231;28;20043;-76
2022/09/12 07:03:26;;;;;;;33.17;26.17;;;15.00;99.90;;;;;;5134203;28;20122;-76
2022/09/12 07:05:52;;;;;;;33.00;27.37;;;15.00;99.90;;;;;;5134199;28;20081;-77
2022/09/12 07:08:17;;;;;;;31.33;25.87;;;15.10;99.90;;;;;;5134201;28;20043;-76
2022/09/12 07:10:43;;;;;;;33.85;26.50;;;15.20;99.90;;;;;;5134081;28;20095;-76
2022/09/12 07:13:08;;;;;;;30.05;24.83;;;15.30;99.90;;;;;;5134116;28;20491;-76
2022/09/12 07:15:35;;;;;;;29.17;23.63;;;15.30;99.90;;;;;;5134177;28;20053;-75
2022/09/12 07:18:01;;;;;;;28.40;22.92;;;15.30;99.90;;;;;;5133976;28;20416;-77
2022/09/12 07:20:27;;;;;;;27.85;22.60;;;15.40;99.90;;;;;;5134100;28;20088;-77
2022/09/12 07:22:52;;;;;;;24.35;21.35;;;15.40;99.90;;;;;;5134147;28;20051;-76
2022/09/12 07:25:18;;;;;;;26.20;21.70;;;15.40;99.90;;;;;;5134554;27;20050;-76
2022/09/12 07:27:43;;;;;;;27.67;22.03;;;15.60;99.90;;;;;;5137772;27;20530;-75
2022/09/12 07:30:09;;;;;;;23.33;20.90;;;15.50;99.90;;;;;;5137299;27;20054;-77
2022/09/12 07:32:35;;;;;;;23.25;20.02;;;15.60;99.90;;;;;;5119269;27;20047;-76
2022/09/12 07:35:01;;;;;;;23.70;19.73;;;15.60;99.90;;;;;;5137615;27;20057;-77
2022/09/12 07:37:30;;;;;;;21.77;19.33;;;15.60;99.90;;;;;;5137534;27;20035;-76
2022/09/12 07:39:56;;;;;;;21.15;18.83;;;15.70;99.90;;;;;;5137605;27;20455;-76
2022/09/12 07:42:22;;;;;;;22.13;19.20;;;15.70;99.90;;;;;;5137408;27;20090;-76
2022/09/12 07:44:47;;;;;;;21.48;18.52;;;15.80;99.90;;;;;;5137394;27;20039;-76
2022/09/12 07:47:13;;;;;;;20.90;17.90;;;15.80;99.90;;;;;;5137249;27;20125;-76
2022/09/12 07:49:39;;;;;;;20.42;18.27;;;15.90;99.90;;;;;;5119048;27;20474;-76
2022/09/12 07:52:05;;;;;;;20.70;18.50;;;15.90;99.90;;;;;;5118989;27;20368;-76
2022/09/12 07:54:32;;;;;;;20.00;17.77;;;16.00;99.90;;;;;;5137540;27;20124;-76
2022/09/12 07:56:57;;;;;;;20.65;17.20;;;16.10;99.90;;;;;;5137159;27;20905;-77
2022/09/12 07:59:23;;;;;;;20.43;16.70;;;16.10;99.90;;;;;;5137078;27;20122;-75
2022/09/12 08:01:49;;;;;;;19.00;16.73;;;16.30;99.90;;;;;;5137011;27;20104;-76
2022/09/12 08:04:14;;;;;;;18.90;16.67;;;16.20;99.90;;;;;;5136987;27;20126;-76
2022/09/12 08:06:40;;;;;;;24.13;16.13;;;16.30;99.90;;;;;;5136939;27;20043;-77
2022/09/12 08:09:06;;;;;;;18.42;16.52;;;16.50;99.90;;;;;;5137051;27;20035;-76
2022/09/12 08:11:32;;;;;;;18.33;16.35;;;16.50;99.90;;;;;;5136860;27;20042;-76
2022/09/12 08:13:58;;;;;;;18.57;16.00;;;16.60;99.90;;;;;;5136780;27;20050;-77
2022/09/12 08:16:29;;;;;;;20.02;16.17;;;16.70;99.90;;;;;;5136483;27;20522;-76
2022/09/12 08:18:56;;;;;;;17.48;15.57;;;16.80;99.90;;;;;;5137418;27;20052;-76
2022/09/12 08:21:25;;;;;;;19.08;15.60;;;16.80;99.90;;;;;;5136660;27;20035;-76
2022/09/12 08:23:52;;;;;;;17.38;15.15;;;16.90;99.90;;;;;;5136642;27;20035;-77
2022/09/12 08:26:19;;;;;;;20.38;16.33;;;17.00;99.90;;;;;;5136575;27;20040;-76
2022/09/12 08:28:45;;;;;;;18.90;16.33;;;16.90;99.90;;;;;;5136466;27;20050;-77
2022/09/12 08:31:13;;;;;;;17.60;15.70;;;17.00;99.90;;;;;;5136480;27;20031;-76
2022/09/12 08:33:39;;;;;;;19.65;15.18;;;17.00;99.90;;;;;;5136481;27;20047;-77
2022/09/12 08:36:16;;;;;;;19.53;15.63;;;17.10;99.90;;;;;;5136429;27;20045;-77
2022/09/12 08:38:45;;;;;;;17.33;15.52;;;17.10;99.90;;;;;;5136002;27;20084;-77
2022/09/12 08:41:16;;;;;;;17.33;15.55;;;17.10;99.90;;;;;;5136526;27;20484;-77
2022/09/12 08:44:21;;;;;;;17.27;15.20;;;17.10;99.90;;;;;;5136001;27;20055;-77
2022/09/12 08:47:10;;;;;;;17.13;15.32;;;17.10;99.90;;;;;;5136362;27;20100;-77
2022/09/12 08:49:47;;;;;;;17.60;15.80;;;17.10;99.90;;;;;;5135921;27;20475;-77
2022/09/12 08:52:24;;;;;;;19.52;17.30;;;17.20;99.90;;;;;;5136096;27;20041;-77
2022/09/12 08:54:52;;;;;;;18.67;15.95;;;17.30;99.90;;;;;;5135921;27;20490;-77
2022/09/12 08:57:17;;;;;;;18.02;15.98;;;17.30;99.90;;;;;;5135955;27;20051;-77
2022/09/12 08:59:45;;;;;;;18.37;16.37;;;17.40;99.90;;;;;;5117743;27;20057;-77
2022/09/12 09:02:25;;;;;;;21.17;17.50;;;17.50;99.90;;;;;;5135840;27;20039;-77
2022/09/12 09:05:11;;;;;;;23.95;17.42;;;17.60;99.90;;;;;;5135699;27;20479;-76
2022/09/12 09:08:21;;;;;;;21.65;16.45;;;17.70;99.90;;;;;;5135851;27;20047;-77
2022/09/12 09:11:07;;;;;;;21.52;17.70;;;17.70;99.90;;;;;;5133257;27;20051;-77
2022/09/12 09:16:40;;;;;;;24.55;18.63;;;17.90;99.90;;;;;;5135561;27;20134;-76
2022/09/12 09:19:21;;;;;;;22.27;18.85;;;18.00;99.90;;;;;;5116989;27;20047;-77
2022/09/12 09:21:53;;;;;;;26.48;20.73;;;18.10;99.90;;;;;;5135505;27;20432;-77
2022/09/12 09:24:23;;;;;;;26.38;19.83;;;18.20;99.90;;;;;;5135843;27;20043;-77
2022/09/12 09:27:25;;;;;;;26.58;21.45;;;18.40;99.90;;;;;;5135601;27;20054;-77
2022/09/12 09:29:53;;;;;;;27.45;21.95;;;18.50;99.90;;;;;;5134731;27;20051;-77
2022/09/12 09:32:29;;;;;;;30.65;22.65;;;18.50;99.90;;;;;;5135272;27;20046;-76
2022/09/12 09:34:57;;;;;;;25.70;21.35;;;18.70;99.90;;;;;;5135352;27;20050;-77
2022/09/12 09:37:40;;;;;;;25.88;20.88;;;18.80;99.90;;;;;;5135695;27;20047;-75
2022/09/12 09:40:34;;;;;;;27.10;20.48;;;19.00;99.90;;;;;;5135131;27;20039;-78
2022/09/12 09:43:15;;;;;;;31.88;22.65;;;19.10;99.90;;;;;;5135462;27;20399;-77
2022/09/12 09:45:41;;;;;;;28.35;22.20;;;19.30;99.90;;;;;;5135243;27;20043;-77
2022/09/12 09:48:09;;;;;;;28.27;22.23;;;19.40;99.90;;;;;;5135029;27;20121;-77
2022/09/12 09:50:36;;;;;;;29.77;22.90;;;19.40;99.90;;;;;;5134122;27;20040;-77
2022/09/12 09:53:02;;;;;;;;;;;19.60;99.90;;;;;;5135487;27;20126;-76
2022/09/12 09:55:37;;;;;;;30.10;22.35;;;19.60;99.90;;;;;;5135077;27;19919;-77
2022/09/12 09:58:03;;;;;;;29.65;22.23;;;19.70;99.90;;;;;;5135493;27;20035;-76
2022/09/12 10:00:34;;;;;;;28.43;23.77;;;19.90;99.90;;;;;;5135343;27;20040;-77
2022/09/12 10:03:09;;;;;;;30.17;23.73;;;19.90;99.90;;;;;;5135008;27;20043;-77
2022/09/12 10:05:47;;;;;;;29.67;23.88;;;20.10;99.90;;;;;;5134743;27;20054;-77
2022/09/12 10:08:26;;;;;;;32.33;25.33;;;20.10;99.90;;;;;;5135392;27;20043;-76
2022/09/12 10:11:15;;;;;;;31.00;23.73;;;20.20;99.90;;;;;;5134714;27;20043;-77
2022/09/12 10:13:53;;;;;;;28.48;23.13;;;20.30;99.90;;;;;;5128068;28;20059;-77
2022/09/12 10:16:33;;;;;;;29.58;23.23;;;20.40;99.90;;;;;;5134710;28;20122;-77
2022/09/12 10:19:01;;;;;;;27.88;21.85;;;20.40;99.90;;;;;;5134845;28;20430;-77
2022/09/12 10:21:33;;;;;;;28.92;21.83;;;20.40;99.90;;;;;;5134553;28;20050;-75
2022/09/12 10:24:19;;;;;;;31.33;23.30;;;20.50;99.90;;;;;;5134462;28;20116;-77
2022/09/12 10:26:50;;;;;;;29.17;21.65;;;20.50;99.90;;;;;;5134841;28;20043;-77
2022/09/12 10:29:28;;;;;;;31.13;22.13;;;20.60;99.90;;;;;;5134883;28;20043;-77
2022/09/12 10:31:58;;;;;;;28.48;21.58;;;20.60;99.90;;;;;;5134746;28;20054;-77
2022/09/12 10:34:36;;;;;;;29.30;21.67;;;20.60;99.90;;;;;;5134524;28;20043;-77
2022/09/12 10:37:20;;;;;;;25.52;20.35;;;20.80;99.90;;;;;;5134537;28;20390;-77
2022/09/12 10:39:54;;;;;;;26.35;21.05;;;21.00;99.90;;;;;;5134446;28;20126;-77
2022/09/12 10:42:44;;;;;;;25.02;20.30;;;20.90;99.90;;;;;;5116640;28;20403;-77
2022/09/12 10:45:23;;;;;;;27.75;21.15;;;21.00;99.90;;;;;;5134369;28;20112;-77
2022/09/12 10:47:50;;;;;;;23.73;19.75;;;21.20;99.90;;;;;;5134385;28;20054;-77
2022/09/12 10:50:29;;;;;;;24.88;19.45;;;21.20;99.90;;;;;;5134263;28;20054;-77
2022/09/12 10:53:21;;;;;;;24.63;19.35;;;21.30;99.90;;;;;;5134528;28;20079;-77
2022/09/12 10:56:14;;;;;;;21.98;17.20;;;21.50;99.90;;;;;;5134283;28;20050;-78
2022/09/12 10:59:12;;;;;;;20.23;16.50;;;21.60;99.90;;;;;;5134422;28;20450;-77
2022/09/12 11:01:45;;;;;;;20.27;16.23;;;21.80;99.90;;;;;;5137442;27;20062;-77
2022/09/12 11:04:44;;;;;;;19.63;14.90;;;21.90;99.90;;;;;;5138473;27;20390;-78
2022/09/12 11:07:23;;;;;;;19.85;15.95;;;21.90;99.90;;;;;;5138504;27;20051;-78
2022/09/12 11:09:52;;;;;;;19.15;15.40;;;22.00;99.90;;;;;;5138008;27;20047;-77
2022/09/12 11:12:32;;;;;;;23.20;15.02;;;22.00;99.90;;;;;;5137886;27;20123;-78
2022/09/12 11:15:36;;;;;;;18.13;15.63;;;22.10;99.90;;;;;;5138392;27;20043;-78
2022/09/12 11:18:26;;;;;;;18.52;14.60;;;22.20;99.90;;;;;;5137962;27;20122;-77
2022/09/12 11:21:16;;;;;;;17.85;13.90;;;22.40;99.90;;;;;;5137992;27;20076;-77
2022/09/12 11:24:03;;;;;;;17.00;13.60;;;22.50;99.90;;;;;;5137797;27;20145;-78
2022/09/12 11:27:01;;;;;;;19.27;15.30;;;22.70;99.90;;;;;;5137995;27;20457;-76
2022/09/12 11:29:29;;;;;;;21.15;15.32;;;22.80;99.90;;;;;;5137623;27;20039;-76
2022/09/12 11:32:24;;;;;;;17.38;13.68;;;22.80;99.90;;;;;;5137607;27;20055;-76
2022/09/12 11:34:59;;;;;;;17.05;14.40;;;22.90;99.90;;;;;;5137720;27;20086;-75
2022/09/12 11:37:46;;;;;;;19.65;13.95;;;23.00;99.90;;;;;;5137541;27;20131;-76
2022/09/12 11:40:30;;;;;;;18.67;14.65;;;23.00;99.90;;;;;;5137569;27;20050;-76
2022/09/12 11:43:25;;;;;;;18.25;13.23;;;23.10;99.90;;;;;;5137556;27;20465;-76
2022/09/12 11:45:51;;;;;;;18.20;14.75;;;23.10;99.90;;;;;;5119225;27;20050;-76
2022/09/12 11:48:38;;;;;;;20.77;14.97;;;23.10;99.90;;;;;;5137352;27;20035;-76
2022/09/12 11:51:14;;;;;;;18.27;14.20;;;23.20;99.90;;;;;;5137220;27;20354;-75
2022/09/12 11:53:41;;;;;;;12.52;10.10;;;23.30;99.90;;;;;;5137350;27;20046;-76
2022/09/12 11:56:17;;;;;;;11.45;8.40;;;23.40;99.90;;;;;;5137095;27;20053;-76
2022/09/12 11:58:50;;;;;;;10.15;8.60;;;23.50;99.90;;;;;;5137664;27;20035;-76
2022/09/12 12:01:39;;;;;;;10.93;8.40;;;23.40;99.90;;;;;;5137135;27;20049;-77
2022/09/12 12:04:10;;;;;;;10.18;7.68;;;23.30;99.90;;;;;;5136997;27;20135;-77
2022/09/12 12:06:52;;;;;;;9.63;7.47;;;23.30;99.90;;;;;;5136922;27;20039;-77
2022/09/12 12:09:18;;;;;;;10.15;8.00;;;23.30;99.90;;;;;;5136926;27;20360;-77
2022/09/12 12:11:51;;;;;;;12.63;8.95;;;23.30;99.90;;;;;;5136433;27;20042;-77
2022/09/12 12:14:21;;;;;;;11.43;8.52;;;23.30;99.90;;;;;;5136590;27;20047;-77
2022/09/12 12:16:48;;;;;;;11.10;8.05;;;23.30;99.90;;;;;;5136915;27;20043;-77
2022/09/12 12:19:13;;;;;;;12.07;8.63;;;23.50;99.90;;;;;;5137152;27;20088;-77
2022/09/12 12:21:51;;;;;;;12.67;8.77;;;23.60;99.90;;;;;;5137120;27;20440;-77
2022/09/12 12:24:23;;;;;;;10.05;8.10;;;23.70;99.90;;;;;;5136606;27;20047;-77
2022/09/12 12:26:51;;;;;;;11.75;9.00;;;23.90;99.90;;;;;;5136756;27;20051;-77
2022/09/12 12:29:16;;;;;;;10.70;8.82;;;24.00;99.90;;;;;;5136472;27;20456;-77
2022/09/12 12:32:03;;;;;;;11.07;7.87;;;24.10;99.90;;;;;;5136415;27;20094;-77
2022/09/12 12:34:33;;;;;;;11.35;8.70;;;24.20;99.90;;;;;;5136495;27;20047;-77
2022/09/12 12:37:18;;;;;;;9.77;8.10;;;24.20;99.90;;;;;;5136967;27;20043;-77
2022/09/12 12:39:47;;;;;;;11.65;7.22;;;24.20;99.90;;;;;;5135926;27;20504;-77
2022/09/12 12:42:31;;;;;;;8.48;7.38;;;24.20;99.90;;;;;;5136058;27;20051;-77
2022/09/12 12:44:57;;;;;;;10.73;7.18;;;24.20;99.90;;;;;;5136242;27;20049;-77
2022/09/12 12:47:27;;;;;;;9.50;7.20;;;24.20;99.90;;;;;;5136197;27;20043;-77
2022/09/12 12:50:10;;;;;;;8.23;6.53;;;24.30;99.90;;;;;;5136000;27;20087;-77
2022/09/12 12:52:45;;;;;;;8.93;6.22;;;24.40;99.90;;;;;;5135968;27;20506;-77
2022/09/12 12:55:19;;;;;;;9.10;6.70;;;24.30;99.90;;;;;;5117595;27;20042;-77
2022/09/12 12:57:50;;;;;;;8.73;6.10;;;24.40;99.90;;;;;;5136311;27;20047;-77
2022/09/12 13:00:28;;;;;;;8.55;5.65;;;24.40;99.90;;;;;;5135902;27;20043;-77